Kelso, Washington
Current Conditions -  °F | °C
As of 8:55 PM on Friday 19 Dec 2014 (Local Time) from KKLS Reporting Station
Overcast Overcast  
Wind Chill: 45°   Ceiling: 4800
Heat Index: 48°   Visibility: 10mi
Dew Point: 43°   Wind: 8mph
Humidity: 82%   Direction: 150°SSE
Pressure: 29.96"   Gusts: NA
Location:  46.14°N, 122.89°W
Report Text: KKLS 200455Z 15007KT 10SM FEW021 SCT033 OVC048 09/06 A2996 RMK AO1 P0001
Loading
Personal Weather Stations






























Interactive Weather Map New forecast layout! Learn more

10-Day Weather Forecast

Advertisements
Track Severe Weather on mobile